Flight Track Log - Related Links

Times and Time Zones

All times are in EDT time to prevent confusion due to time zone crossing. See the KAL1917 flight status page for this flight to view local times or setup timezone preferences in your user account.


Time Position Orientation Groundspeed Altitude Reporting Facility
EDT Latitude Longitude Course Direction KTS MPH feet Rate Location/Type
Tue 01:38:14 AM 35.7140 126.6750 165° South 283 326 9,600  Level FlightAware ADS-B
Tue 01:38:47 AM 35.6770 126.6860 166° South 285 328 9,900 1,739 Climbing FlightAware ADS-B
Tue 01:39:23 AM 35.6770 126.6870 90° East 293 337 11,600 1,417 Climbing FlightAware ADS-B
Tue 01:39:59 AM 35.6360 126.6990 167° South 293 337 11,600  Level FlightAware ADS-B
Tue 01:40:35 AM 35.5960 126.7110 166° South 293 337 11,600  Level FlightAware ADS-B
Tue 01:43:00 AM 35.3820 126.6881 185° South  Level Estimated
Tue 01:44:00 AM 35.2934 126.6787 185° South  Level Estimated
Tue 01:45:00 AM 35.2210 126.6710 185° South  Level Estimated
Tue 01:46:00 AM 35.1485 126.6633 185° South  Level Estimated
Tue 01:47:00 AM 35.0761 126.6556 185° South  Level Estimated
Tue 01:48:00 AM 35.0036 126.6479 185° South  Level Estimated
Tue 01:49:00 AM 34.9312 126.6403 185° South  Level Estimated
Tue 01:50:00 AM 34.8587 126.6327 185° South  Level Estimated
Tue 01:51:00 AM 34.7863 126.6250 185° South  Level Estimated
Tue 01:52:00 AM 34.7138 126.6174 185° South  Level Estimated
Tue 01:53:00 AM 34.6413 126.6098 185° South  Level Estimated
Tue 01:54:00 AM 34.5689 126.6022 185° South  Level Estimated
Tue 01:55:00 AM 34.4964 126.5947 185° South  Level Estimated
Tue 01:56:00 AM 34.4240 126.5871 185° South  Level Estimated
Tue 01:57:00 AM 34.3515 126.5796 185° South  Level Estimated
Tue 01:58:00 AM 34.2790 126.5720 185° South  Level Estimated
Tue 01:59:00 AM 34.2066 126.5645 185° South  Level Estimated
Tue 02:00:00 AM 34.1341 126.5570 185° South  Level Estimated
Tue 02:01:00 AM 34.0617 126.5495 185° South  Level Estimated
Tue 02:02:00 AM 33.9892 126.5420 185° South  Level Estimated
Tue 02:03:00 AM 33.9167 126.5346 185° South  Level Estimated
Tue 02:04:00 AM 33.8443 126.5271 185° South  Level Estimated
Tue 02:05:00 AM 33.7718 126.5197 185° South  Level Estimated
Tue 02:06:00 AM 33.6994 126.5123 185° South  Level Estimated
Tue 02:07:00 AM 33.6269 126.5048 185° South  Level Estimated
Tue 02:08:00 AM 33.5544 126.4974 185° South  Level Estimated
Tue 02:09:00 AM 33.5113 126.4930 185° South  Level Estimated
Tue 02:10:00 AM 33.5113 126.4930 203° Southwest  Level Estimated
Tue 02:11:00 AM 33.5113 126.4930 203° Southwest  Level Estimated

Login

Don't have an account? Register now (free) for customized features, flight alerts, and more!